createdAt,value
2023-05-10T00:01:19.902Z,16.20
2023-05-10T00:03:47.222Z,15.73
2023-05-10T00:06:14.541Z,17.73
2023-05-10T00:08:41.718Z,17.17
2023-05-10T00:11:08.921Z,16.30
2023-05-10T00:13:36.135Z,16.98
2023-05-10T00:16:03.445Z,16.33
2023-05-10T00:18:30.819Z,16.17
2023-05-10T00:20:58.030Z,17.30
2023-05-10T00:23:25.382Z,16.45
2023-05-10T00:25:52.671Z,17.80
2023-05-10T00:28:19.960Z,17.13
2023-05-10T00:30:47.300Z,16.77
2023-05-10T00:33:14.637Z,16.92
2023-05-10T00:35:41.943Z,16.27
2023-05-10T00:38:09.584Z,17.90
2023-05-10T00:40:40.718Z,17.27
2023-05-10T00:43:08.540Z,17.08
2023-05-10T00:45:37.499Z,16.65
2023-05-10T00:48:05.232Z,16.35
2023-05-10T00:50:33.429Z,16.70
2023-05-10T00:53:04.211Z,16.47
2023-05-10T00:55:32.805Z,16.60
2023-05-10T00:58:00.851Z,16.63
2023-05-10T01:00:28.245Z,15.32
2023-05-10T01:02:58.483Z,16.20
2023-05-10T01:05:26.742Z,16.10
2023-05-10T01:07:54.609Z,16.63
2023-05-10T01:10:22.194Z,14.65
2023-05-10T01:12:51.174Z,16.17
2023-05-10T01:15:19.989Z,15.48
2023-05-10T01:17:49.172Z,16.60
2023-05-10T01:20:17.323Z,16.50
2023-05-10T01:22:56.866Z,16.40
2023-05-10T01:25:27.460Z,16.65
2023-05-10T01:28:01.185Z,15.63
2023-05-10T01:30:52.562Z,16.10
2023-05-10T01:33:22.823Z,17.10
2023-05-10T01:35:57.131Z,16.23
2023-05-10T01:38:27.449Z,16.60
2023-05-10T01:41:03.288Z,16.70
2023-05-10T01:43:32.808Z,17.23
2023-05-10T01:46:05.578Z,17.13
2023-05-10T01:48:33.195Z,19.13
2023-05-10T01:51:00.602Z,19.05
2023-05-10T01:53:28.375Z,18.05
2023-05-10T01:55:56.948Z,18.70
2023-05-10T01:58:29.979Z,18.55
2023-05-10T02:00:57.670Z,20.20
2023-05-10T02:03:25.836Z,19.45
2023-05-10T02:05:53.774Z,20.30
2023-05-10T02:08:22.814Z,20.27
2023-05-10T02:10:51.055Z,19.45
2023-05-10T02:13:18.778Z,19.15
2023-05-10T02:15:48.541Z,21.10
2023-05-10T02:18:16.423Z,21.42
2023-05-10T02:20:44.491Z,20.43
2023-05-10T02:23:11.685Z,21.95
2023-05-10T02:25:39.860Z,21.92
2023-05-10T02:28:08.310Z,21.20
2023-05-10T02:30:36.556Z,21.10
2023-05-10T02:33:04.948Z,20.87
2023-05-10T02:35:34.350Z,21.02
2023-05-10T02:38:01.721Z,20.90
2023-05-10T02:40:29.249Z,21.05
2023-05-10T02:42:57.686Z,19.67
2023-05-10T02:45:27.210Z,20.17
2023-05-10T02:47:54.575Z,21.05
2023-05-10T02:50:21.994Z,21.40
2023-05-10T02:52:52.768Z,21.33
2023-05-10T02:55:21.645Z,21.50
2023-05-10T02:57:52.737Z,20.40
2023-05-10T03:00:20.072Z,20.55
2023-05-10T03:02:47.255Z,20.63
2023-05-10T03:05:14.594Z,20.25
2023-05-10T03:07:41.848Z,20.10
2023-05-10T03:10:09.512Z,19.20
2023-05-10T03:12:58.663Z,18.63
2023-05-10T03:15:44.403Z,17.67
2023-05-10T03:18:17.342Z,18.98
2023-05-10T03:20:45.445Z,19.27
2023-05-10T03:23:22.630Z,18.70
2023-05-10T03:25:51.268Z,18.10
2023-05-10T03:28:19.510Z,17.90
2023-05-10T03:30:47.126Z,18.55
2023-05-10T03:33:14.865Z,18.13
2023-05-10T03:35:42.197Z,17.07
2023-05-10T03:38:09.392Z,18.00
2023-05-10T03:40:36.609Z,19.20
2023-05-10T03:43:04.109Z,18.00
2023-05-10T03:45:31.874Z,18.05
2023-05-10T03:48:02.666Z,17.83
2023-05-10T03:50:30.380Z,18.45
2023-05-10T03:52:58.451Z,18.75
2023-05-10T03:55:28.785Z,18.50
2023-05-10T03:57:56.289Z,17.70
2023-05-10T04:00:23.865Z,18.30
2023-05-10T04:02:51.740Z,17.67
2023-05-10T04:05:19.115Z,18.75
2023-05-10T04:07:46.564Z,18.63
2023-05-10T04:10:14.280Z,18.92
2023-05-10T04:12:42.492Z,19.70
2023-05-10T04:15:10.403Z,19.67
2023-05-10T04:17:39.734Z,20.25
2023-05-10T04:20:10.521Z,18.75
2023-05-10T04:22:40.513Z,20.48
2023-05-10T04:25:08.101Z,21.60
2023-05-10T04:27:45.514Z,21.35
2023-05-10T04:30:12.965Z,21.27
2023-05-10T04:32:40.325Z,22.17
2023-05-10T04:35:08.094Z,22.23
2023-05-10T04:37:35.713Z,22.33
2023-05-10T04:40:04.413Z,21.73
2023-05-10T04:42:33.498Z,22.90
2023-05-10T04:45:01.001Z,23.60
2023-05-10T04:47:28.657Z,23.73
2023-05-10T04:49:56.173Z,23.07
2023-05-10T04:52:24.207Z,24.38
2023-05-10T04:54:51.977Z,24.20
2023-05-10T04:57:19.189Z,25.38
2023-05-10T04:59:47.567Z,25.35
2023-05-10T05:02:16.525Z,27.97
2023-05-10T05:04:43.756Z,27.13
2023-05-10T05:07:11.192Z,27.52
2023-05-10T05:09:38.395Z,25.70
2023-05-10T05:12:05.762Z,26.25
2023-05-10T05:14:33.094Z,26.17
2023-05-10T05:17:00.368Z,27.70
2023-05-10T05:19:27.500Z,25.75
2023-05-10T05:21:54.675Z,25.05
2023-05-10T05:24:21.835Z,25.30
2023-05-10T05:26:49.212Z,23.67
2023-05-10T05:29:16.787Z,25.50
2023-05-10T05:31:43.987Z,22.67
2023-05-10T05:34:11.331Z,23.90
2023-05-10T05:36:41.888Z,22.90
2023-05-10T05:39:09.054Z,21.43
2023-05-10T05:41:36.245Z,22.70
2023-05-10T05:44:03.343Z,23.08
2023-05-10T05:46:30.564Z,22.08
2023-05-10T05:48:58.027Z,23.88
2023-05-10T05:51:25.280Z,21.43
2023-05-10T05:53:52.505Z,20.77
2023-05-10T05:56:25.138Z,18.08
2023-05-10T05:58:52.765Z,19.55
2023-05-10T06:01:20.262Z,19.25
2023-05-10T06:03:47.812Z,19.47
2023-05-10T06:06:15.229Z,20.02
2023-05-10T06:08:42.461Z,21.50
2023-05-10T06:11:09.633Z,19.52
2023-05-10T06:13:36.856Z,19.20
2023-05-10T06:16:04.516Z,19.23
2023-05-10T06:18:31.952Z,19.58
2023-05-10T06:20:59.174Z,17.88
2023-05-10T06:23:26.567Z,18.20
2023-05-10T06:25:54.027Z,17.35
2023-05-10T06:28:21.120Z,16.67
2023-05-10T06:30:48.853Z,16.10
2023-05-10T06:33:17.045Z,15.23
2023-05-10T06:35:44.222Z,15.85
2023-05-10T06:38:16.199Z,14.65
2023-05-10T06:40:43.818Z,11.90
2023-05-10T06:43:11.544Z,10.73
2023-05-10T06:45:38.693Z,10.07
2023-05-10T06:48:06.079Z,10.32
2023-05-10T06:50:33.336Z,9.23
2023-05-10T06:53:00.831Z,8.40
2023-05-10T06:55:28.135Z,8.57
2023-05-10T06:57:55.428Z,8.45
2023-05-10T07:00:22.783Z,8.23
2023-05-10T07:02:50.080Z,7.25
2023-05-10T07:05:17.499Z,6.90
2023-05-10T07:07:44.942Z,8.10
2023-05-10T07:10:12.351Z,6.40
2023-05-10T07:12:39.753Z,6.63
2023-05-10T07:15:07.443Z,6.72
2023-05-10T07:17:34.695Z,5.90
2023-05-10T07:20:02.434Z,5.78
2023-05-10T07:22:29.601Z,6.00
2023-05-10T07:24:56.851Z,5.00
2023-05-10T07:27:24.028Z,5.18
2023-05-10T07:29:52.668Z,4.40
2023-05-10T07:37:47.015Z,6.13
2023-05-10T07:40:14.179Z,5.85
2023-05-10T07:42:41.257Z,5.77
2023-05-10T07:45:08.664Z,6.10
2023-05-10T07:47:35.930Z,6.68
2023-05-10T07:50:03.249Z,6.25
2023-05-10T07:52:30.470Z,5.53
2023-05-10T07:54:57.955Z,6.60
2023-05-10T07:57:25.030Z,6.20
2023-05-10T07:59:52.245Z,5.88
2023-05-10T08:02:24.904Z,6.15
2023-05-10T08:04:54.999Z,6.13
2023-05-10T08:07:23.223Z,5.63
2023-05-10T08:09:50.352Z,5.28
2023-05-10T08:12:20.706Z,5.80
2023-05-10T08:14:47.814Z,5.72
2023-05-10T08:17:14.984Z,5.85
2023-05-10T08:19:42.147Z,5.70
2023-05-10T08:22:09.444Z,7.20
2023-05-10T08:24:39.321Z,6.32
2023-05-10T08:27:07.030Z,5.20
2023-05-10T08:29:46.267Z,5.07
2023-05-10T08:32:17.018Z,5.30
2023-05-10T08:34:44.184Z,4.90
2023-05-10T08:37:14.033Z,5.57
2023-05-10T08:39:46.844Z,5.55
2023-05-10T08:42:17.311Z,5.35
2023-05-10T08:44:44.566Z,5.40
2023-05-10T08:47:12.055Z,5.35
2023-05-10T08:49:39.430Z,6.13
2023-05-10T08:52:08.219Z,5.15
2023-05-10T08:54:36.017Z,5.70
2023-05-10T08:57:04.011Z,5.90
2023-05-10T08:59:31.460Z,5.35
2023-05-10T09:02:00.043Z,5.85
2023-05-10T09:04:27.468Z,5.60
2023-05-10T09:06:54.701Z,5.40
2023-05-10T09:09:22.134Z,5.43
2023-05-10T09:11:49.334Z,5.72
2023-05-10T09:14:16.888Z,5.78
2023-05-10T09:16:44.340Z,6.07
2023-05-10T09:19:11.907Z,6.65
2023-05-10T09:21:39.256Z,5.87
2023-05-10T09:24:07.527Z,5.93
2023-05-10T09:26:36.281Z,5.43
2023-05-10T09:29:04.240Z,5.20
2023-05-10T09:31:51.819Z,5.75
2023-05-10T09:34:23.049Z,5.40
2023-05-10T09:36:57.339Z,4.55
2023-05-10T09:39:37.929Z,4.95
2023-05-10T09:42:06.760Z,4.57
2023-05-10T09:44:34.590Z,4.57
2023-05-10T09:47:02.575Z,3.70
2023-05-10T09:49:29.742Z,4.10
2023-05-10T09:52:07.029Z,3.20
2023-05-10T09:54:34.560Z,3.90
2023-05-10T09:57:01.993Z,3.55
2023-05-10T09:59:29.765Z,3.20
2023-05-10T10:02:01.584Z,4.13
2023-05-10T10:04:29.519Z,3.90
2023-05-10T10:07:01.251Z,3.80
2023-05-10T10:09:28.787Z,3.80
2023-05-10T10:11:56.430Z,3.53
2023-05-10T10:14:24.858Z,3.30
2023-05-10T10:17:05.505Z,3.35
2023-05-10T10:19:36.547Z,3.33
2023-05-10T10:22:04.223Z,3.90
2023-05-10T10:24:31.461Z,3.80
2023-05-10T10:27:05.307Z,3.65
2023-05-10T10:29:38.577Z,3.50
2023-05-10T10:32:11.233Z,4.07
2023-05-10T10:34:40.565Z,4.05
2023-05-10T10:37:08.185Z,3.77
2023-05-10T10:39:37.662Z,3.55
2023-05-10T10:42:05.880Z,3.90
2023-05-10T10:44:35.982Z,3.88
2023-05-10T10:47:07.003Z,3.80
2023-05-10T10:49:35.203Z,3.77
2023-05-10T10:52:29.128Z,4.00
2023-05-10T10:55:15.891Z,4.22
2023-05-10T10:57:43.138Z,3.58
2023-05-10T11:00:22.852Z,3.80
2023-05-10T11:02:50.125Z,3.73
2023-05-10T11:05:41.378Z,3.65
2023-05-10T11:08:12.919Z,3.90
2023-05-10T11:10:40.725Z,3.60
2023-05-10T11:13:09.746Z,3.88
2023-05-10T11:15:38.077Z,3.87
2023-05-10T11:18:21.783Z,3.80
2023-05-10T11:20:58.534Z,3.30
2023-05-10T11:23:25.860Z,3.00
2023-05-10T11:25:52.995Z,3.58
2023-05-10T11:28:20.965Z,4.90
2023-05-10T11:30:48.476Z,4.28
2023-05-10T11:33:20.277Z,3.60
2023-05-10T11:35:47.944Z,3.20
2023-05-10T11:38:15.213Z,3.70
2023-05-10T11:40:42.742Z,3.50
2023-05-10T11:43:11.884Z,3.55
2023-05-10T11:45:39.163Z,3.65
2023-05-10T11:48:06.456Z,3.60
2023-05-10T11:50:33.932Z,3.65
2023-05-10T11:53:01.128Z,3.13
2023-05-10T11:55:28.354Z,3.42
2023-05-10T11:57:56.251Z,3.70
2023-05-10T12:00:23.544Z,3.78
2023-05-10T12:02:51.080Z,3.70
2023-05-10T12:05:18.548Z,3.60
2023-05-10T12:07:45.628Z,3.85
2023-05-10T12:10:16.009Z,3.67
2023-05-10T12:12:44.628Z,3.55
2023-05-10T12:15:29.882Z,4.60
2023-05-10T12:17:58.618Z,4.90
2023-05-10T12:20:26.139Z,5.57
2023-05-10T12:22:54.164Z,5.30
2023-05-10T12:25:22.620Z,5.50
2023-05-10T12:27:50.564Z,5.28
2023-05-10T12:30:24.592Z,5.17
2023-05-10T12:32:52.321Z,5.60
2023-05-10T12:35:22.839Z,4.70
2023-05-10T12:37:50.010Z,4.75
2023-05-10T12:40:17.349Z,5.20
2023-05-10T12:42:47.447Z,5.30
2023-05-10T12:45:15.143Z,5.20
2023-05-10T12:47:43.985Z,5.40
2023-05-10T12:50:12.017Z,5.90
2023-05-10T12:52:39.226Z,5.22
2023-05-10T12:55:06.375Z,5.00
2023-05-10T12:57:33.442Z,5.32
2023-05-10T13:00:00.568Z,5.53
2023-05-10T13:02:27.719Z,5.45
2023-05-10T13:04:54.939Z,5.68
2023-05-10T13:07:22.128Z,5.43
2023-05-10T13:09:49.321Z,5.13
2023-05-10T13:12:16.437Z,5.22
2023-05-10T13:14:43.550Z,5.60
2023-05-10T13:17:11.248Z,5.60
2023-05-10T13:19:38.448Z,5.93
2023-05-10T13:22:05.694Z,5.32
2023-05-10T13:24:32.793Z,6.20
2023-05-10T13:27:00.059Z,6.28
2023-05-10T13:29:27.300Z,6.00
2023-05-10T13:31:54.644Z,6.67
2023-05-10T13:34:21.879Z,6.45
2023-05-10T13:36:49.879Z,6.70
2023-05-10T13:39:17.662Z,6.47
2023-05-10T13:41:44.809Z,5.75
2023-05-10T13:44:13.745Z,5.43
2023-05-10T13:46:41.001Z,5.80
2023-05-10T13:49:28.727Z,6.65
2023-05-10T13:51:55.903Z,7.18
2023-05-10T13:54:23.211Z,7.05
2023-05-10T13:56:50.384Z,7.10
2023-05-10T13:59:17.537Z,7.85
2023-05-10T14:01:44.806Z,7.45
2023-05-10T14:04:13.089Z,7.15
2023-05-10T14:06:40.396Z,6.70
2023-05-10T14:09:07.636Z,6.30
2023-05-10T14:11:34.764Z,6.00
2023-05-10T14:14:01.899Z,6.43
2023-05-10T14:16:29.410Z,6.03
2023-05-10T14:18:56.779Z,5.55
2023-05-10T14:21:24.219Z,5.97
2023-05-10T14:23:51.358Z,5.68
2023-05-10T14:26:18.494Z,6.20
2023-05-10T14:28:45.719Z,6.28
2023-05-10T14:31:13.312Z,6.15
2023-05-10T14:33:41.009Z,5.53
2023-05-10T14:36:08.574Z,5.90
2023-05-10T14:38:35.779Z,6.22
2023-05-10T14:41:02.969Z,6.32
2023-05-10T14:43:39.479Z,5.80
2023-05-10T14:46:06.647Z,6.27
2023-05-10T14:48:33.860Z,5.65
2023-05-10T14:51:00.986Z,5.75
2023-05-10T14:53:28.132Z,5.40
2023-05-10T14:55:55.248Z,5.28
2023-05-10T14:58:22.441Z,5.73
2023-05-10T15:00:49.617Z,5.47
2023-05-10T15:03:17.524Z,5.38
2023-05-10T15:05:45.068Z,5.50
2023-05-10T15:08:13.496Z,5.68
2023-05-10T15:10:41.014Z,5.83
2023-05-10T15:13:08.204Z,5.40
2023-05-10T15:15:35.295Z,5.57
2023-05-10T15:18:02.551Z,4.45
2023-05-10T15:20:29.763Z,5.40
2023-05-10T15:22:56.907Z,5.80
2023-05-10T15:25:24.673Z,5.65
2023-05-10T15:27:51.834Z,5.63
2023-05-10T15:30:18.960Z,5.60
2023-05-10T15:32:46.200Z,5.70
2023-05-10T15:35:13.479Z,5.73
2023-05-10T15:37:40.598Z,5.10
2023-05-10T15:40:08.064Z,5.78
2023-05-10T15:42:35.356Z,5.20
2023-05-10T15:45:02.586Z,5.90
2023-05-10T15:47:31.672Z,6.13
2023-05-10T15:49:58.821Z,4.90
2023-05-10T15:52:26.005Z,5.30
2023-05-10T15:54:53.130Z,4.82
2023-05-10T15:57:20.292Z,4.78
2023-05-10T15:59:47.510Z,4.77
2023-05-10T16:02:14.782Z,4.72
2023-05-10T16:04:42.308Z,5.15
2023-05-10T16:07:09.584Z,5.30
2023-05-10T16:09:36.829Z,5.13
2023-05-10T16:12:04.495Z,5.70
2023-05-10T16:14:31.786Z,5.05
2023-05-10T16:16:59.024Z,5.72
2023-05-10T16:19:29.150Z,4.97
2023-05-10T16:22:02.011Z,5.13
2023-05-10T16:24:29.177Z,5.30
2023-05-10T16:26:56.363Z,5.10
2023-05-10T16:29:23.485Z,5.43
2023-05-10T16:31:50.689Z,5.55
2023-05-10T16:34:17.832Z,5.30
2023-05-10T16:36:45.056Z,5.60
2023-05-10T16:39:12.192Z,5.10
2023-05-10T16:41:39.372Z,6.25
2023-05-10T16:44:06.502Z,5.80
2023-05-10T16:46:33.914Z,5.68
2023-05-10T16:49:01.212Z,6.07
2023-05-10T16:51:29.325Z,5.80
2023-05-10T16:53:56.498Z,4.90
2023-05-10T16:56:23.999Z,5.05
2023-05-10T16:58:51.477Z,4.93
2023-05-10T17:01:18.673Z,4.20
2023-05-10T17:03:46.217Z,4.00
2023-05-10T17:06:15.763Z,4.50
2023-05-10T17:08:43.255Z,4.07
2023-05-10T17:11:10.483Z,4.82
2023-05-10T17:13:39.094Z,4.93
2023-05-10T17:16:08.294Z,5.50
2023-05-10T17:18:35.666Z,5.53
2023-05-10T17:24:02.192Z,5.57
2023-05-10T17:26:30.034Z,5.23
2023-05-10T17:28:57.258Z,5.55
2023-05-10T17:31:24.443Z,5.88
2023-05-10T17:33:51.585Z,5.97
2023-05-10T17:36:18.708Z,6.05
2023-05-10T17:38:45.938Z,5.70
2023-05-10T17:41:13.161Z,6.78
2023-05-10T17:43:40.365Z,5.75
2023-05-10T17:46:07.827Z,5.78
2023-05-10T17:48:36.975Z,5.88
2023-05-10T17:51:04.455Z,6.10
2023-05-10T17:53:31.839Z,6.47
2023-05-10T17:56:01.138Z,6.13
2023-05-10T17:58:28.934Z,5.68
2023-05-10T18:00:57.508Z,6.03
2023-05-10T18:03:24.746Z,6.13
2023-05-10T18:05:52.026Z,6.45
2023-05-10T18:08:22.834Z,5.93
2023-05-10T18:10:50.274Z,5.20
2023-05-10T18:13:18.347Z,5.53
2023-05-10T18:15:45.798Z,4.87
2023-05-10T18:18:13.096Z,5.10
2023-05-10T18:20:41.057Z,5.22
2023-05-10T18:23:08.392Z,4.63
2023-05-10T18:25:36.136Z,4.65
2023-05-10T18:28:03.762Z,4.40
2023-05-10T18:30:30.985Z,4.80
2023-05-10T18:32:58.235Z,4.55
2023-05-10T18:35:25.531Z,4.80
2023-05-10T18:37:52.909Z,5.00
2023-05-10T18:40:20.161Z,4.93
2023-05-10T18:42:47.488Z,5.28
2023-05-10T18:45:14.936Z,4.93
2023-05-10T18:47:42.870Z,5.15
2023-05-10T18:50:10.381Z,4.85
2023-05-10T18:52:37.592Z,4.90
2023-05-10T18:55:05.147Z,4.95
2023-05-10T18:57:32.291Z,5.65
2023-05-10T18:59:59.475Z,5.85
2023-05-10T19:02:26.818Z,5.53
2023-05-10T19:04:54.209Z,5.70
2023-05-10T19:07:22.480Z,5.07
2023-05-10T19:09:49.629Z,5.97
2023-05-10T19:12:16.872Z,5.32
2023-05-10T19:14:44.070Z,5.28
2023-05-10T19:17:14.063Z,5.47
2023-05-10T19:19:41.167Z,5.68
2023-05-10T19:22:08.283Z,6.03
2023-05-10T19:24:35.690Z,5.80
2023-05-10T19:27:02.942Z,5.70
2023-05-10T19:29:30.201Z,5.67
2023-05-10T19:31:57.540Z,6.03
2023-05-10T19:34:24.813Z,5.60
2023-05-10T19:36:52.023Z,5.60
2023-05-10T19:39:19.490Z,5.57
2023-05-10T19:41:47.731Z,5.73
2023-05-10T19:44:15.855Z,5.90
2023-05-10T19:46:43.085Z,5.70
2023-05-10T19:49:10.341Z,6.20
2023-05-10T19:51:37.473Z,6.88
2023-05-10T19:54:04.699Z,6.28
2023-05-10T19:56:31.842Z,7.03
2023-05-10T19:58:59.554Z,6.82
2023-05-10T20:01:26.815Z,7.03
2023-05-10T20:03:54.116Z,8.05
2023-05-10T20:06:21.393Z,8.48
2023-05-10T20:08:51.330Z,7.23
2023-05-10T20:11:18.547Z,7.38
2023-05-10T20:13:45.635Z,7.15
2023-05-10T20:16:13.024Z,7.53
2023-05-10T20:18:40.263Z,6.88
2023-05-10T20:21:07.553Z,7.17
2023-05-10T20:23:34.655Z,7.10
2023-05-10T20:26:02.009Z,7.15
2023-05-10T20:28:29.512Z,7.32
2023-05-10T20:30:57.203Z,7.28
2023-05-10T20:33:24.526Z,7.40
2023-05-10T20:35:52.375Z,8.07
2023-05-10T20:38:19.544Z,7.88
2023-05-10T20:40:47.297Z,7.57
2023-05-10T20:43:14.498Z,6.90
2023-05-10T20:45:41.637Z,7.77
2023-05-10T20:48:09.582Z,7.38
2023-05-10T20:50:36.787Z,7.93
2023-05-10T20:53:04.042Z,7.50
2023-05-10T20:55:31.266Z,7.22
2023-05-10T20:57:58.440Z,7.70
2023-05-10T21:00:25.979Z,7.95
2023-05-10T21:02:53.229Z,7.43
2023-05-10T21:05:20.613Z,7.95
2023-05-10T21:07:47.801Z,7.90
2023-05-10T21:10:15.179Z,8.03
2023-05-10T21:12:42.402Z,7.75
2023-05-10T21:15:09.956Z,8.38
2023-05-10T21:17:37.147Z,8.73
2023-05-10T21:20:04.526Z,8.00
2023-05-10T21:22:31.672Z,7.93
2023-05-10T21:24:58.872Z,8.32
2023-05-10T21:27:26.079Z,7.93
2023-05-10T21:29:53.580Z,8.00
2023-05-10T21:32:20.872Z,8.70
2023-05-10T21:34:48.002Z,8.40
2023-05-10T21:37:17.250Z,8.10
2023-05-10T21:39:44.584Z,7.95
2023-05-10T21:42:11.883Z,7.97
2023-05-10T21:44:39.250Z,7.97
2023-05-10T21:47:06.699Z,8.17
2023-05-10T21:49:34.018Z,8.15
2023-05-10T21:52:01.458Z,7.88
2023-05-10T21:54:28.826Z,8.48
2023-05-10T21:56:56.226Z,8.20
2023-05-10T21:59:23.339Z,8.20
2023-05-10T22:01:50.610Z,9.20
2023-05-10T22:04:17.737Z,9.00
2023-05-10T22:06:45.109Z,8.27
2023-05-10T22:09:12.532Z,8.13
2023-05-10T22:11:39.699Z,8.30
2023-05-10T22:14:06.868Z,8.10
2023-05-10T22:16:33.989Z,8.10
2023-05-10T22:19:03.459Z,8.25
2023-05-10T22:21:30.660Z,7.65
2023-05-10T22:23:57.779Z,8.17
2023-05-10T22:26:24.933Z,7.97
2023-05-10T22:28:52.046Z,7.85
2023-05-10T22:31:19.188Z,7.60
2023-05-10T22:33:46.322Z,8.35
2023-05-10T22:36:15.140Z,8.33
2023-05-10T22:38:42.240Z,8.20
2023-05-10T22:41:09.357Z,8.43
2023-05-10T22:43:36.431Z,8.98
2023-05-10T22:46:03.590Z,8.15
2023-05-10T22:48:30.826Z,8.33
2023-05-10T22:50:57.933Z,8.55
2023-05-10T22:53:25.206Z,7.70
2023-05-10T22:55:52.461Z,8.20
2023-05-10T22:58:19.675Z,8.55
2023-05-10T23:00:46.883Z,7.83
2023-05-10T23:03:14.594Z,8.05
2023-05-10T23:05:41.807Z,8.73
2023-05-10T23:08:08.994Z,8.45
2023-05-10T23:10:37.818Z,8.32
2023-05-10T23:13:06.710Z,8.57
2023-05-10T23:15:35.523Z,8.60
2023-05-10T23:18:04.483Z,8.77
2023-05-10T23:20:31.614Z,8.05
2023-05-10T23:22:58.804Z,8.40
2023-05-10T23:25:26.078Z,8.57
2023-05-10T23:27:53.211Z,8.50
2023-05-10T23:30:20.356Z,9.23
2023-05-10T23:32:47.574Z,8.27
2023-05-10T23:35:14.713Z,8.30
2023-05-10T23:37:42.495Z,8.60
2023-05-10T23:40:09.951Z,8.55
2023-05-10T23:42:37.147Z,8.30
2023-05-10T23:45:04.643Z,8.55
2023-05-10T23:47:31.846Z,8.75
2023-05-10T23:49:59.046Z,9.57
2023-05-10T23:52:26.403Z,8.23
2023-05-10T23:54:53.897Z,8.68
2023-05-10T23:57:21.518Z,8.80
2023-05-10T23:59:48.789Z,9.18
